sensor_id;sensor_type;location;lat;lon;timestamp;temperature;humidity
2729;DHT22;1372;47.956;7.830;2023-01-19T00:00:58;-0.10;99.90
2729;DHT22;1372;47.956;7.830;2023-01-19T00:03:26;0.00;99.90
2729;DHT22;1372;47.956;7.830;2023-01-19T00:05:55;0.00;99.90
2729;DHT22;1372;47.956;7.830;2023-01-19T00:08:23;0.00;99.90
2729;DHT22;1372;47.956;7.830;2023-01-19T00:10:52;0.00;99.90
2729;DHT22;1372;47.956;7.830;2023-01-19T00:13:22;0.10;99.90
2729;DHT22;1372;47.956;7.830;2023-01-19T00:15:51;0.10;99.90
2729;DHT22;1372;47.956;7.830;2023-01-19T00:18:20;0.20;99.90
2729;DHT22;1372;47.956;7.830;2023-01-19T00:20:48;0.20;99.90
2729;DHT22;1372;47.956;7.830;2023-01-19T00:23:17;0.20;99.90
2729;DHT22;1372;47.956;7.830;2023-01-19T00:25:47;0.10;99.90
2729;DHT22;1372;47.956;7.830;2023-01-19T00:28:17;0.10;99.90
2729;DHT22;1372;47.956;7.830;2023-01-19T00:30:49;0.00;99.90
2729;DHT22;1372;47.956;7.830;2023-01-19T00:33:18;0.00;99.90
2729;DHT22;1372;47.956;7.830;2023-01-19T00:41:10;0.10;99.90
2729;DHT22;1372;47.956;7.830;2023-01-19T00:46:43;0.20;99.90
2729;DHT22;1372;47.956;7.830;2023-01-19T00:49:14;0.40;99.90
2729;DHT22;1372;47.956;7.830;2023-01-19T00:51:46;0.40;99.90
2729;DHT22;1372;47.956;7.830;2023-01-19T00:54:15;0.30;99.90
2729;DHT22;1372;47.956;7.830;2023-01-19T00:56:44;0.30;99.90
2729;DHT22;1372;47.956;7.830;2023-01-19T00:59:13;0.20;99.90
2729;DHT22;1372;47.956;7.830;2023-01-19T01:01:43;0.10;99.90
2729;DHT22;1372;47.956;7.830;2023-01-19T01:04:12;0.30;99.90
2729;DHT22;1372;47.956;7.830;2023-01-19T01:06:41;0.30;99.90
2729;DHT22;1372;47.956;7.830;2023-01-19T01:09:09;0.30;99.90
2729;DHT22;1372;47.956;7.830;2023-01-19T01:11:41;0.10;99.90
2729;DHT22;1372;47.956;7.830;2023-01-19T01:14:11;0.00;99.90
2729;DHT22;1372;47.956;7.830;2023-01-19T01:16:40;0.00;99.90
2729;DHT22;1372;47.956;7.830;2023-01-19T01:19:10;0.00;99.90
2729;DHT22;1372;47.956;7.830;2023-01-19T01:21:39;-0.10;99.90
2729;DHT22;1372;47.956;7.830;2023-01-19T01:24:10;-0.20;99.90
2729;DHT22;1372;47.956;7.830;2023-01-19T01:26:39;-0.30;99.90
2729;DHT22;1372;47.956;7.830;2023-01-19T01:29:07;-0.40;99.90
2729;DHT22;1372;47.956;7.830;2023-01-19T01:31:36;-0.50;99.90
2729;DHT22;1372;47.956;7.830;2023-01-19T01:34:04;-0.50;99.90
2729;DHT22;1372;47.956;7.830;2023-01-19T01:36:34;-0.70;99.90
2729;DHT22;1372;47.956;7.830;2023-01-19T01:39:03;-0.80;99.90
2729;DHT22;1372;47.956;7.830;2023-01-19T01:41:32;-0.90;99.90
2729;DHT22;1372;47.956;7.830;2023-01-19T01:44:01;-1.00;99.90
2729;DHT22;1372;47.956;7.830;2023-01-19T01:46:34;-1.00;99.90
2729;DHT22;1372;47.956;7.830;2023-01-19T01:49:06;-1.00;99.90
2729;DHT22;1372;47.956;7.830;2023-01-19T01:51:42;-1.00;99.90
2729;DHT22;1372;47.956;7.830;2023-01-19T01:54:16;-1.10;99.90
2729;DHT22;1372;47.956;7.830;2023-01-19T01:56:51;-1.00;99.90
2729;DHT22;1372;47.956;7.830;2023-01-19T01:59:26;-1.10;99.90
2729;DHT22;1372;47.956;7.830;2023-01-19T02:02:03;-1.20;99.90
2729;DHT22;1372;47.956;7.830;2023-01-19T02:04:54;-1.20;99.90
2729;DHT22;1372;47.956;7.830;2023-01-19T02:07:34;-1.10;99.90
2729;DHT22;1372;47.956;7.830;2023-01-19T02:10:25;-1.20;99.90
2729;DHT22;1372;47.956;7.830;2023-01-19T02:13:11;-1.10;99.90
2729;DHT22;1372;47.956;7.830;2023-01-19T02:16:02;-1.20;99.90
2729;DHT22;1372;47.956;7.830;2023-01-19T02:18:34;-1.10;99.90
2729;DHT22;1372;47.956;7.830;2023-01-19T02:21:08;-0.90;99.90
2729;DHT22;1372;47.956;7.830;2023-01-19T02:23:43;-0.90;99.90
2729;DHT22;1372;47.956;7.830;2023-01-19T02:26:15;-0.90;99.90
2729;DHT22;1372;47.956;7.830;2023-01-19T02:28:48;-0.80;99.90
2729;DHT22;1372;47.956;7.830;2023-01-19T02:31:18;-0.70;99.90
2729;DHT22;1372;47.956;7.830;2023-01-19T02:33:47;-0.60;99.90
2729;DHT22;1372;47.956;7.830;2023-01-19T02:36:18;-0.50;99.90
2729;DHT22;1372;47.956;7.830;2023-01-19T02:38:52;-0.40;99.90
2729;DHT22;1372;47.956;7.830;2023-01-19T02:41:27;-0.20;99.90
2729;DHT22;1372;47.956;7.830;2023-01-19T02:43:57;-0.20;99.90
2729;DHT22;1372;47.956;7.830;2023-01-19T02:46:26;-0.10;99.90
2729;DHT22;1372;47.956;7.830;2023-01-19T02:48:57;0.00;99.90
2729;DHT22;1372;47.956;7.830;2023-01-19T02:51:27;-0.10;99.90
2729;DHT22;1372;47.956;7.830;2023-01-19T02:54:22;-0.10;99.90
2729;DHT22;1372;47.956;7.830;2023-01-19T02:57:07;-0.10;99.90
2729;DHT22;1372;47.956;7.830;2023-01-19T02:59:51;-0.20;99.90
2729;DHT22;1372;47.956;7.830;2023-01-19T03:02:32;-0.10;99.90
2729;DHT22;1372;47.956;7.830;2023-01-19T03:05:16;-0.20;99.90
2729;DHT22;1372;47.956;7.830;2023-01-19T03:07:55;-0.10;99.90
2729;DHT22;1372;47.956;7.830;2023-01-19T03:10:35;0.10;99.90
2729;DHT22;1372;47.956;7.830;2023-01-19T03:13:16;0.10;99.90
2729;DHT22;1372;47.956;7.830;2023-01-19T03:15:49;0.10;99.90
2729;DHT22;1372;47.956;7.830;2023-01-19T03:18:24;0.10;99.90
2729;DHT22;1372;47.956;7.830;2023-01-19T03:20:57;0.20;99.90
2729;DHT22;1372;47.956;7.830;2023-01-19T03:23:30;0.20;99.90
2729;DHT22;1372;47.956;7.830;2023-01-19T03:26:02;0.10;99.90
2729;DHT22;1372;47.956;7.830;2023-01-19T03:28:33;0.10;99.90
2729;DHT22;1372;47.956;7.830;2023-01-19T03:31:08;0.00;99.90
2729;DHT22;1372;47.956;7.830;2023-01-19T03:33:43;-0.10;99.90
2729;DHT22;1372;47.956;7.830;2023-01-19T03:36:17;-0.10;99.90
2729;DHT22;1372;47.956;7.830;2023-01-19T03:38:48;-0.10;99.90
2729;DHT22;1372;47.956;7.830;2023-01-19T03:41:21;-0.20;99.90
2729;DHT22;1372;47.956;7.830;2023-01-19T03:43:52;-0.20;99.90
2729;DHT22;1372;47.956;7.830;2023-01-19T03:46:23;-0.10;99.90
2729;DHT22;1372;47.956;7.830;2023-01-19T03:48:53;-0.10;99.90
2729;DHT22;1372;47.956;7.830;2023-01-19T03:51:22;0.00;99.90
2729;DHT22;1372;47.956;7.830;2023-01-19T03:53:51;0.00;99.90
2729;DHT22;1372;47.956;7.830;2023-01-19T03:56:22;-0.10;99.90
2729;DHT22;1372;47.956;7.830;2023-01-19T03:58:52;-0.20;99.90
2729;DHT22;1372;47.956;7.830;2023-01-19T04:01:22;-0.10;99.90
2729;DHT22;1372;47.956;7.830;2023-01-19T04:03:52;-0.20;99.90
2729;DHT22;1372;47.956;7.830;2023-01-19T04:06:21;-0.30;99.90
2729;DHT22;1372;47.956;7.830;2023-01-19T04:08:50;-0.40;99.90
2729;DHT22;1372;47.956;7.830;2023-01-19T04:11:21;-0.50;99.90
2729;DHT22;1372;47.956;7.830;2023-01-19T04:13:49;-0.50;99.90
2729;DHT22;1372;47.956;7.830;2023-01-19T04:16:18;-0.80;99.90
2729;DHT22;1372;47.956;7.830;2023-01-19T04:18:47;-0.70;99.90
2729;DHT22;1372;47.956;7.830;2023-01-19T04:21:18;-0.70;99.90
2729;DHT22;1372;47.956;7.830;2023-01-19T04:23:49;-0.80;99.90
2729;DHT22;1372;47.956;7.830;2023-01-19T04:26:20;-1.00;99.90
2729;DHT22;1372;47.956;7.830;2023-01-19T04:28:51;-1.00;99.90
2729;DHT22;1372;47.956;7.830;2023-01-19T04:31:20;-1.10;99.90
2729;DHT22;1372;47.956;7.830;2023-01-19T04:33:49;-1.10;99.90
2729;DHT22;1372;47.956;7.830;2023-01-19T04:36:18;-1.10;99.90
2729;DHT22;1372;47.956;7.830;2023-01-19T04:38:46;-1.20;99.90
2729;DHT22;1372;47.956;7.830;2023-01-19T04:41:15;-1.40;99.90
2729;DHT22;1372;47.956;7.830;2023-01-19T04:43:46;-1.30;99.90
2729;DHT22;1372;47.956;7.830;2023-01-19T04:46:29;-1.30;99.90
2729;DHT22;1372;47.956;7.830;2023-01-19T04:48:57;-1.40;99.90
2729;DHT22;1372;47.956;7.830;2023-01-19T04:51:26;-1.50;99.90
2729;DHT22;1372;47.956;7.830;2023-01-19T04:53:55;-1.40;99.90
2729;DHT22;1372;47.956;7.830;2023-01-19T04:56:24;-1.50;99.90
2729;DHT22;1372;47.956;7.830;2023-01-19T04:58:54;-1.50;99.90
2729;DHT22;1372;47.956;7.830;2023-01-19T05:01:23;-1.50;99.90
2729;DHT22;1372;47.956;7.830;2023-01-19T05:03:54;-1.40;99.90
2729;DHT22;1372;47.956;7.830;2023-01-19T05:06:25;-1.60;99.90
2729;DHT22;1372;47.956;7.830;2023-01-19T05:08:54;-1.40;99.90
2729;DHT22;1372;47.956;7.830;2023-01-19T05:11:22;-1.30;99.90
2729;DHT22;1372;47.956;7.830;2023-01-19T05:13:51;-1.40;99.90
2729;DHT22;1372;47.956;7.830;2023-01-19T05:16:21;-1.50;99.90
2729;DHT22;1372;47.956;7.830;2023-01-19T05:18:50;-1.40;99.90
2729;DHT22;1372;47.956;7.830;2023-01-19T05:21:21;-1.40;99.90
2729;DHT22;1372;47.956;7.830;2023-01-19T05:23:49;-1.40;99.90
2729;DHT22;1372;47.956;7.830;2023-01-19T05:26:18;-1.30;99.90
2729;DHT22;1372;47.956;7.830;2023-01-19T05:28:48;-1.30;99.90
2729;DHT22;1372;47.956;7.830;2023-01-19T05:31:17;-1.40;99.90
2729;DHT22;1372;47.956;7.830;2023-01-19T05:33:47;-1.40;99.90
2729;DHT22;1372;47.956;7.830;2023-01-19T05:36:16;-1.50;99.90
2729;DHT22;1372;47.956;7.830;2023-01-19T05:38:44;-1.40;99.90
2729;DHT22;1372;47.956;7.830;2023-01-19T05:41:13;-1.40;99.90
2729;DHT22;1372;47.956;7.830;2023-01-19T05:43:42;-1.40;99.90
2729;DHT22;1372;47.956;7.830;2023-01-19T05:46:10;-1.40;99.90
2729;DHT22;1372;47.956;7.830;2023-01-19T05:48:39;-1.60;99.90
2729;DHT22;1372;47.956;7.830;2023-01-19T05:51:09;-1.60;99.90
2729;DHT22;1372;47.956;7.830;2023-01-19T05:53:37;-1.60;99.90
2729;DHT22;1372;47.956;7.830;2023-01-19T05:56:07;-1.70;99.90
2729;DHT22;1372;47.956;7.830;2023-01-19T05:58:37;-1.60;99.90
2729;DHT22;1372;47.956;7.830;2023-01-19T06:01:09;-1.50;99.90
2729;DHT22;1372;47.956;7.830;2023-01-19T06:03:41;-1.40;99.90
2729;DHT22;1372;47.956;7.830;2023-01-19T06:06:14;-1.40;99.90
2729;DHT22;1372;47.956;7.830;2023-01-19T06:08:45;-1.50;99.90
2729;DHT22;1372;47.956;7.830;2023-01-19T06:11:16;-1.50;99.90
2729;DHT22;1372;47.956;7.830;2023-01-19T06:13:45;-1.50;99.90
2729;DHT22;1372;47.956;7.830;2023-01-19T06:16:17;-1.60;99.90
2729;DHT22;1372;47.956;7.830;2023-01-19T06:18:45;-1.50;99.90
2729;DHT22;1372;47.956;7.830;2023-01-19T06:21:15;-1.50;99.90
2729;DHT22;1372;47.956;7.830;2023-01-19T06:23:44;-1.50;99.90
2729;DHT22;1372;47.956;7.830;2023-01-19T06:26:12;-1.50;99.90
2729;DHT22;1372;47.956;7.830;2023-01-19T06:28:41;-1.60;99.90
2729;DHT22;1372;47.956;7.830;2023-01-19T06:31:09;-1.70;99.90
2729;DHT22;1372;47.956;7.830;2023-01-19T06:33:40;-1.80;99.90
2729;DHT22;1372;47.956;7.830;2023-01-19T06:36:09;-1.70;99.90
2729;DHT22;1372;47.956;7.830;2023-01-19T06:38:39;-1.80;99.90
2729;DHT22;1372;47.956;7.830;2023-01-19T06:41:07;-1.70;99.90
2729;DHT22;1372;47.956;7.830;2023-01-19T06:43:36;-1.70;99.90
2729;DHT22;1372;47.956;7.830;2023-01-19T06:46:05;-1.60;99.90
2729;DHT22;1372;47.956;7.830;2023-01-19T06:48:35;-1.60;99.90
2729;DHT22;1372;47.956;7.830;2023-01-19T06:51:05;-1.60;99.90
2729;DHT22;1372;47.956;7.830;2023-01-19T06:53:36;-1.60;99.90
2729;DHT22;1372;47.956;7.830;2023-01-19T06:56:08;-1.50;99.90
2729;DHT22;1372;47.956;7.830;2023-01-19T06:58:37;-1.50;99.90
2729;DHT22;1372;47.956;7.830;2023-01-19T07:01:06;-1.60;99.90
2729;DHT22;1372;47.956;7.830;2023-01-19T07:03:35;-1.60;99.90
2729;DHT22;1372;47.956;7.830;2023-01-19T07:06:05;-1.60;99.90
2729;DHT22;1372;47.956;7.830;2023-01-19T07:08:34;-1.40;99.90
2729;DHT22;1372;47.956;7.830;2023-01-19T07:11:05;-1.30;99.90
2729;DHT22;1372;47.956;7.830;2023-01-19T07:13:52;-1.10;99.90
2729;DHT22;1372;47.956;7.830;2023-01-19T07:16:21;-1.20;99.90
2729;DHT22;1372;47.956;7.830;2023-01-19T07:18:50;-1.10;99.90
2729;DHT22;1372;47.956;7.830;2023-01-19T07:21:19;-1.10;99.90
2729;DHT22;1372;47.956;7.830;2023-01-19T07:23:49;-1.10;99.90
2729;DHT22;1372;47.956;7.830;2023-01-19T07:26:20;-0.90;99.90
2729;DHT22;1372;47.956;7.830;2023-01-19T07:28:51;-0.90;99.90
2729;DHT22;1372;47.956;7.830;2023-01-19T07:31:19;-1.00;99.90
2729;DHT22;1372;47.956;7.830;2023-01-19T07:33:48;-1.00;99.90
2729;DHT22;1372;47.956;7.830;2023-01-19T07:36:17;-1.00;99.90
2729;DHT22;1372;47.956;7.830;2023-01-19T07:38:46;-0.90;99.90
2729;DHT22;1372;47.956;7.830;2023-01-19T07:41:14;-0.80;99.90
2729;DHT22;1372;47.956;7.830;2023-01-19T07:43:44;-0.90;99.90
2729;DHT22;1372;47.956;7.830;2023-01-19T07:46:13;-0.90;99.90
2729;DHT22;1372;47.956;7.830;2023-01-19T07:48:42;-0.90;99.90
2729;DHT22;1372;47.956;7.830;2023-01-19T07:51:13;-0.80;99.90
2729;DHT22;1372;47.956;7.830;2023-01-19T07:53:44;-0.70;99.90
2729;DHT22;1372;47.956;7.830;2023-01-19T07:56:13;-0.70;99.90
2729;DHT22;1372;47.956;7.830;2023-01-19T07:58:44;-0.60;99.90
2729;DHT22;1372;47.956;7.830;2023-01-19T08:01:12;-0.60;99.90
2729;DHT22;1372;47.956;7.830;2023-01-19T08:03:41;-0.50;99.90
2729;DHT22;1372;47.956;7.830;2023-01-19T08:06:18;-0.50;99.90
2729;DHT22;1372;47.956;7.830;2023-01-19T08:08:48;-0.40;99.90
2729;DHT22;1372;47.956;7.830;2023-01-19T08:11:19;-0.30;99.90
2729;DHT22;1372;47.956;7.830;2023-01-19T08:13:51;-0.20;99.90
2729;DHT22;1372;47.956;7.830;2023-01-19T08:16:24;-0.10;99.90
2729;DHT22;1372;47.956;7.830;2023-01-19T08:18:57;0.00;99.90
2729;DHT22;1372;47.956;7.830;2023-01-19T08:21:29;0.00;99.90
2729;DHT22;1372;47.956;7.830;2023-01-19T08:24:02;0.10;99.90
2729;DHT22;1372;47.956;7.830;2023-01-19T08:26:32;0.00;99.90
2729;DHT22;1372;47.956;7.830;2023-01-19T08:29:05;0.10;99.90
2729;DHT22;1372;47.956;7.830;2023-01-19T08:31:33;0.00;99.90
2729;DHT22;1372;47.956;7.830;2023-01-19T08:34:02;0.10;99.90
2729;DHT22;1372;47.956;7.830;2023-01-19T08:36:31;0.10;99.90
2729;DHT22;1372;47.956;7.830;2023-01-19T08:39:03;0.30;99.90
2729;DHT22;1372;47.956;7.830;2023-01-19T08:41:32;0.40;99.90
2729;DHT22;1372;47.956;7.830;2023-01-19T08:44:05;0.50;99.90
2729;DHT22;1372;47.956;7.830;2023-01-19T08:46:36;0.50;99.90
2729;DHT22;1372;47.956;7.830;2023-01-19T08:49:05;0.50;99.90
2729;DHT22;1372;47.956;7.830;2023-01-19T08:51:34;0.50;99.90
2729;DHT22;1372;47.956;7.830;2023-01-19T08:54:03;0.40;99.90
2729;DHT22;1372;47.956;7.830;2023-01-19T08:56:31;0.50;99.90
2729;DHT22;1372;47.956;7.830;2023-01-19T08:59:00;0.60;99.90
2729;DHT22;1372;47.956;7.830;2023-01-19T09:01:40;0.50;99.90
2729;DHT22;1372;47.956;7.830;2023-01-19T09:04:08;0.60;99.90
2729;DHT22;1372;47.956;7.830;2023-01-19T09:06:37;0.70;99.90
2729;DHT22;1372;47.956;7.830;2023-01-19T09:09:06;0.90;99.90
2729;DHT22;1372;47.956;7.830;2023-01-19T09:11:35;1.10;99.90
2729;DHT22;1372;47.956;7.830;2023-01-19T09:14:03;1.20;99.90
2729;DHT22;1372;47.956;7.830;2023-01-19T09:16:33;1.30;99.90
2729;DHT22;1372;47.956;7.830;2023-01-19T09:19:03;1.40;99.90
2729;DHT22;1372;47.956;7.830;2023-01-19T09:21:35;1.40;99.90
2729;DHT22;1372;47.956;7.830;2023-01-19T09:24:04;1.60;99.90
2729;DHT22;1372;47.956;7.830;2023-01-19T09:26:33;1.70;99.90
2729;DHT22;1372;47.956;7.830;2023-01-19T09:29:02;1.80;99.90
2729;DHT22;1372;47.956;7.830;2023-01-19T09:31:31;1.90;99.90
2729;DHT22;1372;47.956;7.830;2023-01-19T09:34:00;1.80;99.90
2729;DHT22;1372;47.956;7.830;2023-01-19T09:36:30;2.00;99.90
2729;DHT22;1372;47.956;7.830;2023-01-19T09:38:59;2.10;99.90
2729;DHT22;1372;47.956;7.830;2023-01-19T09:41:28;2.70;99.90
2729;DHT22;1372;47.956;7.830;2023-01-19T09:43:59;2.80;99.90
2729;DHT22;1372;47.956;7.830;2023-01-19T09:46:32;2.80;99.90
2729;DHT22;1372;47.956;7.830;2023-01-19T09:49:11;2.70;99.90
2729;DHT22;1372;47.956;7.830;2023-01-19T09:51:47;2.60;99.90
2729;DHT22;1372;47.956;7.830;2023-01-19T09:54:19;2.80;99.90
2729;DHT22;1372;47.956;7.830;2023-01-19T09:56:51;2.80;99.90
2729;DHT22;1372;47.956;7.830;2023-01-19T09:59:22;2.60;99.90
2729;DHT22;1372;47.956;7.830;2023-01-19T10:02:13;2.60;99.90
2729;DHT22;1372;47.956;7.830;2023-01-19T10:04:55;2.60;99.90
2729;DHT22;1372;47.956;7.830;2023-01-19T10:07:43;2.50;99.90
2729;DHT22;1372;47.956;7.830;2023-01-19T10:10:20;2.60;99.90
2729;DHT22;1372;47.956;7.830;2023-01-19T10:13:17;2.60;99.90
2729;DHT22;1372;47.956;7.830;2023-01-19T10:16:16;2.70;99.90
2729;DHT22;1372;47.956;7.830;2023-01-19T10:18:53;2.70;99.90
2729;DHT22;1372;47.956;7.830;2023-01-19T10:21:26;2.80;99.90
2729;DHT22;1372;47.956;7.830;2023-01-19T10:24:04;2.80;99.90
2729;DHT22;1372;47.956;7.830;2023-01-19T10:26:37;2.80;99.90
2729;DHT22;1372;47.956;7.830;2023-01-19T10:29:16;2.90;99.90
2729;DHT22;1372;47.956;7.830;2023-01-19T10:31:50;3.00;99.90
2729;DHT22;1372;47.956;7.830;2023-01-19T10:34:21;3.00;99.90
2729;DHT22;1372;47.956;7.830;2023-01-19T10:36:56;3.00;99.90
2729;DHT22;1372;47.956;7.830;2023-01-19T10:39:29;2.90;99.90
2729;DHT22;1372;47.956;7.830;2023-01-19T10:41:59;2.80;99.90
2729;DHT22;1372;47.956;7.830;2023-01-19T10:44:35;2.80;99.90
2729;DHT22;1372;47.956;7.830;2023-01-19T10:47:10;2.70;99.90
2729;DHT22;1372;47.956;7.830;2023-01-19T10:49:43;2.70;99.90
2729;DHT22;1372;47.956;7.830;2023-01-19T10:52:19;2.70;99.90
2729;DHT22;1372;47.956;7.830;2023-01-19T10:54:54;2.70;99.90
2729;DHT22;1372;47.956;7.830;2023-01-19T10:57:27;2.70;99.90
2729;DHT22;1372;47.956;7.830;2023-01-19T10:59:57;2.70;99.90
2729;DHT22;1372;47.956;7.830;2023-01-19T11:02:28;2.70;99.90
2729;DHT22;1372;47.956;7.830;2023-01-19T11:04:59;2.70;99.90
2729;DHT22;1372;47.956;7.830;2023-01-19T11:07:31;2.70;99.90
2729;DHT22;1372;47.956;7.830;2023-01-19T11:10:22;2.80;99.90
2729;DHT22;1372;47.956;7.830;2023-01-19T11:12:58;2.80;99.90
2729;DHT22;1372;47.956;7.830;2023-01-19T11:15:31;2.80;99.90
2729;DHT22;1372;47.956;7.830;2023-01-19T11:18:03;2.80;99.90
2729;DHT22;1372;47.956;7.830;2023-01-19T11:20:46;2.80;99.90
2729;DHT22;1372;47.956;7.830;2023-01-19T11:23:21;2.80;99.90
2729;DHT22;1372;47.956;7.830;2023-01-19T11:25:57;2.80;99.90
2729;DHT22;1372;47.956;7.830;2023-01-19T11:28:30;2.70;99.90
2729;DHT22;1372;47.956;7.830;2023-01-19T11:31:01;2.70;99.90
2729;DHT22;1372;47.956;7.830;2023-01-19T11:33:35;2.60;99.90
2729;DHT22;1372;47.956;7.830;2023-01-19T11:36:14;2.70;99.90
2729;DHT22;1372;47.956;7.830;2023-01-19T11:38:46;2.70;99.90
2729;DHT22;1372;47.956;7.830;2023-01-19T11:41:20;2.60;99.90
2729;DHT22;1372;47.956;7.830;2023-01-19T11:43:52;2.70;99.90
2729;DHT22;1372;47.956;7.830;2023-01-19T11:46:24;2.70;99.90
2729;DHT22;1372;47.956;7.830;2023-01-19T11:49:00;2.70;99.90
2729;DHT22;1372;47.956;7.830;2023-01-19T11:51:38;2.80;99.90
2729;DHT22;1372;47.956;7.830;2023-01-19T11:54:18;2.90;99.90
2729;DHT22;1372;47.956;7.830;2023-01-19T11:56:53;3.00;99.90
2729;DHT22;1372;47.956;7.830;2023-01-19T11:59:23;3.10;99.90
2729;DHT22;1372;47.956;7.830;2023-01-19T12:01:56;2.90;99.90
2729;DHT22;1372;47.956;7.830;2023-01-19T12:04:29;2.90;99.90
2729;DHT22;1372;47.956;7.830;2023-01-19T12:07:03;3.00;99.90
2729;DHT22;1372;47.956;7.830;2023-01-19T12:09:39;2.90;99.90
2729;DHT22;1372;47.956;7.830;2023-01-19T12:12:16;3.00;99.90
2729;DHT22;1372;47.956;7.830;2023-01-19T12:14:56;3.00;99.90
2729;DHT22;1372;47.956;7.830;2023-01-19T12:17:30;2.90;99.90
2729;DHT22;1372;47.956;7.830;2023-01-19T12:20:05;2.90;99.90
2729;DHT22;1372;47.956;7.830;2023-01-19T12:22:44;2.90;99.90
2729;DHT22;1372;47.956;7.830;2023-01-19T12:25:21;3.10;99.90
2729;DHT22;1372;47.956;7.830;2023-01-19T12:27:56;3.20;99.90
2729;DHT22;1372;47.956;7.830;2023-01-19T12:30:28;3.20;99.90
2729;DHT22;1372;47.956;7.830;2023-01-19T12:33:20;3.30;99.90
2729;DHT22;1372;47.956;7.830;2023-01-19T12:36:05;3.30;99.90
2729;DHT22;1372;47.956;7.830;2023-01-19T12:38:46;3.40;99.90
2729;DHT22;1372;47.956;7.830;2023-01-19T12:41:24;3.30;99.90
2729;DHT22;1372;47.956;7.830;2023-01-19T12:44:21;3.40;99.90
2729;DHT22;1372;47.956;7.830;2023-01-19T12:46:53;3.40;99.90
2729;DHT22;1372;47.956;7.830;2023-01-19T12:49:38;3.50;99.90
2729;DHT22;1372;47.956;7.830;2023-01-19T12:52:15;3.50;99.90
2729;DHT22;1372;47.956;7.830;2023-01-19T12:54:57;3.60;99.90
2729;DHT22;1372;47.956;7.830;2023-01-19T12:57:32;3.50;99.90
2729;DHT22;1372;47.956;7.830;2023-01-19T13:00:07;3.60;99.90
2729;DHT22;1372;47.956;7.830;2023-01-19T13:03:00;3.50;99.90
2729;DHT22;1372;47.956;7.830;2023-01-19T13:05:56;3.60;99.90
2729;DHT22;1372;47.956;7.830;2023-01-19T13:08:27;3.50;99.90
2729;DHT22;1372;47.956;7.830;2023-01-19T13:11:24;3.50;99.90
2729;DHT22;1372;47.956;7.830;2023-01-19T13:17:23;3.50;99.90
2729;DHT22;1372;47.956;7.830;2023-01-19T13:20:21;3.40;99.90
2729;DHT22;1372;47.956;7.830;2023-01-19T13:23:18;3.40;99.90
2729;DHT22;1372;47.956;7.830;2023-01-19T13:26:02;3.40;99.90
2729;DHT22;1372;47.956;7.830;2023-01-19T13:28:38;3.50;99.90
2729;DHT22;1372;47.956;7.830;2023-01-19T13:31:09;3.50;99.90
2729;DHT22;1372;47.956;7.830;2023-01-19T13:33:46;3.50;99.90
2729;DHT22;1372;47.956;7.830;2023-01-19T13:36:26;3.50;99.90
2729;DHT22;1372;47.956;7.830;2023-01-19T13:39:01;3.30;99.90
2729;DHT22;1372;47.956;7.830;2023-01-19T13:41:35;3.30;99.90
2729;DHT22;1372;47.956;7.830;2023-01-19T13:44:08;3.40;99.90
2729;DHT22;1372;47.956;7.830;2023-01-19T13:46:41;3.40;99.90
2729;DHT22;1372;47.956;7.830;2023-01-19T13:49:17;3.20;99.90
2729;DHT22;1372;47.956;7.830;2023-01-19T13:52:03;3.30;99.90
2729;DHT22;1372;47.956;7.830;2023-01-19T13:54:33;3.40;99.90
2729;DHT22;1372;47.956;7.830;2023-01-19T13:57:02;3.40;99.90
2729;DHT22;1372;47.956;7.830;2023-01-19T13:59:31;3.50;99.90
2729;DHT22;1372;47.956;7.830;2023-01-19T14:02:07;3.40;99.90
2729;DHT22;1372;47.956;7.830;2023-01-19T14:04:41;3.40;99.90
2729;DHT22;1372;47.956;7.830;2023-01-19T14:07:20;3.40;99.90
2729;DHT22;1372;47.956;7.830;2023-01-19T14:10:02;3.30;99.90
2729;DHT22;1372;47.956;7.830;2023-01-19T14:12:31;3.30;99.90
2729;DHT22;1372;47.956;7.830;2023-01-19T14:15:06;3.30;99.90
2729;DHT22;1372;47.956;7.830;2023-01-19T14:17:40;3.20;99.90
2729;DHT22;1372;47.956;7.830;2023-01-19T14:20:29;3.30;99.90
2729;DHT22;1372;47.956;7.830;2023-01-19T14:23:03;3.30;99.90
2729;DHT22;1372;47.956;7.830;2023-01-19T14:25:34;3.10;99.90
2729;DHT22;1372;47.956;7.830;2023-01-19T14:28:27;3.10;99.90
2729;DHT22;1372;47.956;7.830;2023-01-19T14:30:58;3.10;99.90
2729;DHT22;1372;47.956;7.830;2023-01-19T14:33:40;3.00;99.90
2729;DHT22;1372;47.956;7.830;2023-01-19T14:36:34;3.10;99.90
2729;DHT22;1372;47.956;7.830;2023-01-19T14:39:13;3.20;99.90
2729;DHT22;1372;47.956;7.830;2023-01-19T14:41:48;3.20;99.90
2729;DHT22;1372;47.956;7.830;2023-01-19T14:44:25;3.20;99.90
2729;DHT22;1372;47.956;7.830;2023-01-19T14:46:57;3.20;99.90
2729;DHT22;1372;47.956;7.830;2023-01-19T14:49:37;3.30;99.90
2729;DHT22;1372;47.956;7.830;2023-01-19T14:52:20;3.10;99.90
2729;DHT22;1372;47.956;7.830;2023-01-19T14:54:51;3.10;99.90
2729;DHT22;1372;47.956;7.830;2023-01-19T14:57:24;3.00;99.90
2729;DHT22;1372;47.956;7.830;2023-01-19T14:59:53;3.00;99.90
2729;DHT22;1372;47.956;7.830;2023-01-19T15:02:24;3.00;99.90
2729;DHT22;1372;47.956;7.830;2023-01-19T15:04:55;3.10;99.90
2729;DHT22;1372;47.956;7.830;2023-01-19T15:07:27;3.10;99.90
2729;DHT22;1372;47.956;7.830;2023-01-19T15:09:57;3.10;99.90
2729;DHT22;1372;47.956;7.830;2023-01-19T15:12:27;3.10;99.90
2729;DHT22;1372;47.956;7.830;2023-01-19T15:14:56;3.00;99.90
2729;DHT22;1372;47.956;7.830;2023-01-19T15:17:26;3.00;99.90
2729;DHT22;1372;47.956;7.830;2023-01-19T15:19:55;2.90;99.90
2729;DHT22;1372;47.956;7.830;2023-01-19T15:22:26;2.90;99.90
2729;DHT22;1372;47.956;7.830;2023-01-19T15:24:56;2.90;99.90
2729;DHT22;1372;47.956;7.830;2023-01-19T15:27:28;2.90;99.90
2729;DHT22;1372;47.956;7.830;2023-01-19T15:30:00;2.80;99.90
2729;DHT22;1372;47.956;7.830;2023-01-19T15:32:29;2.80;99.90
2729;DHT22;1372;47.956;7.830;2023-01-19T15:34:58;2.70;99.90
2729;DHT22;1372;47.956;7.830;2023-01-19T15:37:30;2.80;99.90
2729;DHT22;1372;47.956;7.830;2023-01-19T15:39:59;2.80;99.90
2729;DHT22;1372;47.956;7.830;2023-01-19T15:42:28;2.90;99.90
2729;DHT22;1372;47.956;7.830;2023-01-19T15:44:57;2.90;99.90
2729;DHT22;1372;47.956;7.830;2023-01-19T15:47:28;2.80;99.90
2729;DHT22;1372;47.956;7.830;2023-01-19T15:49:56;2.80;99.90
2729;DHT22;1372;47.956;7.830;2023-01-19T15:52:25;2.70;99.90
2729;DHT22;1372;47.956;7.830;2023-01-19T15:54:55;2.70;99.90
2729;DHT22;1372;47.956;7.830;2023-01-19T15:57:23;2.70;99.90
2729;DHT22;1372;47.956;7.830;2023-01-19T15:59:52;2.70;99.90
2729;DHT22;1372;47.956;7.830;2023-01-19T16:02:21;2.70;99.90
2729;DHT22;1372;47.956;7.830;2023-01-19T16:04:53;2.60;99.90
2729;DHT22;1372;47.956;7.830;2023-01-19T16:07:22;2.60;99.90
2729;DHT22;1372;47.956;7.830;2023-01-19T16:09:55;2.60;99.90
2729;DHT22;1372;47.956;7.830;2023-01-19T16:12:24;2.50;99.90
2729;DHT22;1372;47.956;7.830;2023-01-19T16:14:52;2.50;99.90
2729;DHT22;1372;47.956;7.830;2023-01-19T16:17:21;2.50;99.90
2729;DHT22;1372;47.956;7.830;2023-01-19T16:19:50;2.50;99.90
2729;DHT22;1372;47.956;7.830;2023-01-19T16:22:19;2.50;99.90
2729;DHT22;1372;47.956;7.830;2023-01-19T16:24:48;2.30;99.90
2729;DHT22;1372;47.956;7.830;2023-01-19T16:27:18;2.20;99.90
2729;DHT22;1372;47.956;7.830;2023-01-19T16:29:47;2.10;99.90
2729;DHT22;1372;47.956;7.830;2023-01-19T16:32:16;2.00;99.90
2729;DHT22;1372;47.956;7.830;2023-01-19T16:34:45;2.00;99.90
2729;DHT22;1372;47.956;7.830;2023-01-19T16:37:19;1.90;99.90
2729;DHT22;1372;47.956;7.830;2023-01-19T16:39:54;2.00;99.90
2729;DHT22;1372;47.956;7.830;2023-01-19T16:42:24;2.10;99.90
2729;DHT22;1372;47.956;7.830;2023-01-19T16:44:54;2.00;99.90
2729;DHT22;1372;47.956;7.830;2023-01-19T16:47:23;1.90;99.90
2729;DHT22;1372;47.956;7.830;2023-01-19T16:49:51;1.90;99.90
2729;DHT22;1372;47.956;7.830;2023-01-19T16:52:21;1.80;99.90
2729;DHT22;1372;47.956;7.830;2023-01-19T16:54:50;1.80;99.90
2729;DHT22;1372;47.956;7.830;2023-01-19T16:57:24;1.80;99.90
2729;DHT22;1372;47.956;7.830;2023-01-19T16:59:53;1.80;99.90